sensor_id;sensor_type;location;lat;lon;timestamp;pressure;altitude;pressure_sealevel;temperature;humidity
11692;BME280;33659;42.672;23.354;2024-01-10T00:00:42;66862.78;;;-1.19;60.10
11692;BME280;33659;42.672;23.354;2024-01-10T00:03:08;66868.16;;;-1.14;59.84
11692;BME280;33659;42.672;23.354;2024-01-10T00:05:35;66868.56;;;-1.16;59.77
11692;BME280;33659;42.672;23.354;2024-01-10T00:08:02;66851.53;;;-1.29;59.58
11692;BME280;33659;42.672;23.354;2024-01-10T00:10:28;66861.03;;;-1.23;59.73
11692;BME280;33659;42.672;23.354;2024-01-10T00:12:56;66862.78;;;-1.19;59.80
11692;BME280;33659;42.672;23.354;2024-01-10T00:15:23;66846.88;;;-1.31;59.94
11692;BME280;33659;42.672;23.354;2024-01-10T00:17:50;66855.69;;;-1.28;60.30
11692;BME280;33659;42.672;23.354;2024-01-10T00:20:17;66812.84;;;-1.69;60.15
11692;BME280;33659;42.672;23.354;2024-01-10T00:22:43;66851.00;;;-1.30;60.08
11692;BME280;33659;42.672;23.354;2024-01-10T00:25:10;66856.78;;;-1.27;60.40
11692;BME280;33659;42.672;23.354;2024-01-10T00:27:37;66854.22;;;-1.27;60.16
11692;BME280;33659;42.672;23.354;2024-01-10T00:30:06;66853.69;;;-1.27;60.12
11692;BME280;33659;42.672;23.354;2024-01-10T00:32:33;66853.16;;;-1.28;60.20
11692;BME280;33659;42.672;23.354;2024-01-10T00:35:00;66855.28;;;-1.26;60.09
11692;BME280;33659;42.672;23.354;2024-01-10T00:37:28;66823.16;;;-1.56;59.87
11692;BME280;33659;42.672;23.354;2024-01-10T00:39:54;66823.69;;;-1.56;59.75
11692;BME280;33659;42.672;23.354;2024-01-10T00:42:22;66869.22;;;-1.13;59.65
11692;BME280;33659;42.672;23.354;2024-01-10T00:44:48;66882.09;;;-1.00;59.45
11692;BME280;33659;42.672;23.354;2024-01-10T00:47:16;66880.88;;;-1.04;58.68
11692;BME280;33659;42.672;23.354;2024-01-10T00:49:43;66868.16;;;-1.14;58.82
11692;BME280;33659;42.672;23.354;2024-01-10T00:52:10;66863.47;;;-1.16;58.72
11692;BME280;33659;42.672;23.354;2024-01-10T00:54:36;66855.16;;;-1.28;58.78
11692;BME280;33659;42.672;23.354;2024-01-10T00:57:03;66821.16;;;-1.56;58.92
11692;BME280;33659;42.672;23.354;2024-01-10T00:59:29;66883.03;;;-1.02;58.75
11692;BME280;33659;42.672;23.354;2024-01-10T01:01:55;66885.69;;;-0.99;58.56
11692;BME280;33659;42.672;23.354;2024-01-10T01:04:23;66888.94;;;-0.96;58.42
11692;BME280;33659;42.672;23.354;2024-01-10T01:06:51;66886.25;;;-0.99;58.31
11692;BME280;33659;42.672;23.354;2024-01-10T01:09:18;66893.22;;;-0.92;58.46
11692;BME280;33659;42.672;23.354;2024-01-10T01:11:45;66887.47;;;-0.95;57.97
11692;BME280;33659;42.672;23.354;2024-01-10T01:14:11;66888.53;;;-0.94;58.58
11692;BME280;33659;42.672;23.354;2024-01-10T01:16:38;66887.06;;;-0.93;58.22
11692;BME280;33659;42.672;23.354;2024-01-10T01:19:05;66890.66;;;-0.92;57.77
11692;BME280;33659;42.672;23.354;2024-01-10T01:21:33;66889.06;;;-0.94;57.82
11692;BME280;33659;42.672;23.354;2024-01-10T01:23:59;66885.69;;;-0.99;58.27
11692;BME280;33659;42.672;23.354;2024-01-10T01:26:26;66846.72;;;-1.34;58.38
11692;BME280;33659;42.672;23.354;2024-01-10T01:28:53;66892.13;;;-0.93;58.39
11692;BME280;33659;42.672;23.354;2024-01-10T01:31:19;66881.56;;;-1.01;58.85
11692;BME280;33659;42.672;23.354;2024-01-10T01:33:46;66873.53;;;-1.08;58.67
11692;BME280;33659;42.672;23.354;2024-01-10T01:36:13;66876.06;;;-1.08;58.49
11692;BME280;33659;42.672;23.354;2024-01-10T01:38:41;66842.03;;;-1.36;58.30
11692;BME280;33659;42.672;23.354;2024-01-10T01:41:07;66870.97;;;-1.08;58.52
11692;BME280;33659;42.672;23.354;2024-01-10T01:43:34;66854.75;;;-1.26;58.42
11692;BME280;33659;42.672;23.354;2024-01-10T01:46:02;66865.63;;;-1.14;58.98
11692;BME280;33659;42.672;23.354;2024-01-10T01:48:29;66884.91;;;-0.95;58.92
11692;BME280;33659;42.672;23.354;2024-01-10T01:50:59;66879.28;;;-1.05;59.17
11692;BME280;33659;42.672;23.354;2024-01-10T01:53:27;66884.63;;;-1.00;59.30
11692;BME280;33659;42.672;23.354;2024-01-10T01:55:57;66846.72;;;-1.34;59.02
11692;BME280;33659;42.672;23.354;2024-01-10T01:58:24;66848.88;;;-1.32;58.43
11692;BME280;33659;42.672;23.354;2024-01-10T02:00:51;66880.88;;;-1.04;58.88
11692;BME280;33659;42.672;23.354;2024-01-10T02:03:18;66874.97;;;-1.10;59.04
11692;BME280;33659;42.672;23.354;2024-01-10T02:05:46;66831.19;;;-1.49;58.92
11692;BME280;33659;42.672;23.354;2024-01-10T02:08:13;66857.44;;;-1.24;59.26
11692;BME280;33659;42.672;23.354;2024-01-10T02:10:40;66867.47;;;-1.17;59.05
11692;BME280;33659;42.672;23.354;2024-01-10T02:13:08;66861.31;;;-1.18;59.42
11692;BME280;33659;42.672;23.354;2024-01-10T02:15:37;66858.50;;;-1.23;59.19
11692;BME280;33659;42.672;23.354;2024-01-10T02:18:04;66857.44;;;-1.24;59.46
11692;BME280;33659;42.672;23.354;2024-01-10T02:20:31;66838.16;;;-1.42;59.80
11692;BME280;33659;42.672;23.354;2024-01-10T02:22:58;66862.25;;;-1.19;59.85
11692;BME280;33659;42.672;23.354;2024-01-10T02:25:26;66867.09;;;-1.15;59.43
11692;BME280;33659;42.672;23.354;2024-01-10T02:27:53;66857.31;;;-1.26;59.07
11692;BME280;33659;42.672;23.354;2024-01-10T02:30:19;66829.56;;;-1.50;58.77
11692;BME280;33659;42.672;23.354;2024-01-10T02:32:46;66864.94;;;-1.17;59.13
11692;BME280;33659;42.672;23.354;2024-01-10T02:35:13;66838.81;;;-1.39;59.04
11692;BME280;33659;42.672;23.354;2024-01-10T02:37:39;66861.72;;;-1.20;59.02
11692;BME280;33659;42.672;23.354;2024-01-10T02:40:08;66851.94;;;-1.31;58.21
11692;BME280;33659;42.672;23.354;2024-01-10T02:42:37;66873.91;;;-1.11;58.34
11692;BME280;33659;42.672;23.354;2024-01-10T02:45:03;66865.34;;;-1.19;58.03
11692;BME280;33659;42.672;23.354;2024-01-10T02:47:30;66871.91;;;-1.10;58.55
11692;BME280;33659;42.672;23.354;2024-01-10T02:49:56;66869.34;;;-1.10;58.45
11692;BME280;33659;42.672;23.354;2024-01-10T02:52:24;66878.19;;;-1.06;58.75
11692;BME280;33659;42.672;23.354;2024-01-10T02:54:54;66876.88;;;-1.03;58.53
11692;BME280;33659;42.672;23.354;2024-01-10T02:57:21;66879.97;;;-1.02;58.32
11692;BME280;33659;42.672;23.354;2024-01-10T02:59:49;66876.59;;;-1.08;57.87
11692;BME280;33659;42.672;23.354;2024-01-10T03:02:16;66865.63;;;-1.14;57.72
11692;BME280;33659;42.672;23.354;2024-01-10T03:04:43;66838.16;;;-1.42;57.98
11692;BME280;33659;42.672;23.354;2024-01-10T03:07:10;66870.97;;;-1.08;58.22
11692;BME280;33659;42.672;23.354;2024-01-10T03:09:37;66882.50;;;-1.02;58.19
11692;BME280;33659;42.672;23.354;2024-01-10T03:12:04;66831.72;;;-1.48;57.96
11692;BME280;33659;42.672;23.354;2024-01-10T03:14:32;66873.53;;;-1.08;58.71
11692;BME280;33659;42.672;23.354;2024-01-10T03:17:00;66857.84;;;-1.26;57.34
11692;BME280;33659;42.672;23.354;2024-01-10T03:19:27;66836.00;;;-1.44;57.89
11692;BME280;33659;42.672;23.354;2024-01-10T03:21:54;66833.34;;;-1.47;57.91
11692;BME280;33659;42.672;23.354;2024-01-10T03:24:21;66842.84;;;-1.40;58.16
11692;BME280;33659;42.672;23.354;2024-01-10T03:26:52;66793.84;;;-1.82;58.97
11692;BME280;33659;42.672;23.354;2024-01-10T03:29:19;66840.31;;;-1.40;58.78
11692;BME280;33659;42.672;23.354;2024-01-10T03:31:45;66817.25;;;-1.62;58.47
11692;BME280;33659;42.672;23.354;2024-01-10T03:34:13;66809.09;;;-1.72;57.09
11692;BME280;33659;42.672;23.354;2024-01-10T03:36:42;66856.78;;;-1.27;57.50
11692;BME280;33659;42.672;23.354;2024-01-10T03:39:09;66855.28;;;-1.26;56.77
11692;BME280;33659;42.672;23.354;2024-01-10T03:41:35;66842.44;;;-1.38;56.90
11692;BME280;33659;42.672;23.354;2024-01-10T03:44:02;66845.09;;;-1.36;57.22
11692;BME280;33659;42.672;23.354;2024-01-10T03:46:29;66797.97;;;-1.80;58.35
11692;BME280;33659;42.672;23.354;2024-01-10T03:48:57;66837.59;;;-1.43;58.41
11692;BME280;33659;42.672;23.354;2024-01-10T03:51:25;66830.66;;;-1.49;58.29
11692;BME280;33659;42.672;23.354;2024-01-10T03:53:51;66825.69;;;-1.56;57.99
11692;BME280;33659;42.672;23.354;2024-01-10T03:56:20;66796.38;;;-1.82;58.21
11692;BME280;33659;42.672;23.354;2024-01-10T03:58:47;66823.69;;;-1.56;57.90
11692;BME280;33659;42.672;23.354;2024-01-10T04:01:14;66860.13;;;-1.21;58.04
11692;BME280;33659;42.672;23.354;2024-01-10T04:03:41;66868.56;;;-1.16;57.42
11692;BME280;33659;42.672;23.354;2024-01-10T04:06:08;66821.00;;;-1.58;57.72
11692;BME280;33659;42.672;23.354;2024-01-10T04:08:36;66849.41;;;-1.31;57.95
11692;BME280;33659;42.672;23.354;2024-01-10T04:11:03;66809.09;;;-1.72;57.58
11692;BME280;33659;42.672;23.354;2024-01-10T04:13:30;66867.09;;;-1.15;57.70
11692;BME280;33659;42.672;23.354;2024-01-10T04:15:56;66858.66;;;-1.20;57.32
11692;BME280;33659;42.672;23.354;2024-01-10T04:18:23;66862.13;;;-1.22;57.18
11692;BME280;33659;42.672;23.354;2024-01-10T04:20:50;66875.66;;;-1.06;57.18
11692;BME280;33659;42.672;23.354;2024-01-10T04:23:17;66845.50;;;-1.38;56.55
11692;BME280;33659;42.672;23.354;2024-01-10T04:25:46;66837.06;;;-1.43;56.48
11692;BME280;33659;42.672;23.354;2024-01-10T04:28:14;66875.13;;;-1.07;56.20
11692;BME280;33659;42.672;23.354;2024-01-10T04:30:41;66873.00;;;-1.09;56.39
11692;BME280;33659;42.672;23.354;2024-01-10T04:33:08;66846.72;;;-1.34;56.28
11692;BME280;33659;42.672;23.354;2024-01-10T04:35:35;66882.63;;;-1.00;56.48
11692;BME280;33659;42.672;23.354;2024-01-10T04:38:03;66871.38;;;-1.11;56.72
11692;BME280;33659;42.672;23.354;2024-01-10T04:40:30;66868.00;;;-1.16;56.96
11692;BME280;33659;42.672;23.354;2024-01-10T04:42:58;66890.53;;;-0.95;56.42
11692;BME280;33659;42.672;23.354;2024-01-10T04:45:25;66892.25;;;-0.91;56.88
11692;BME280;33659;42.672;23.354;2024-01-10T04:47:52;66888.13;;;-0.92;56.90
11692;BME280;33659;42.672;23.354;2024-01-10T04:50:19;66854.63;;;-1.29;56.63
11692;BME280;33659;42.672;23.354;2024-01-10T04:52:46;66891.59;;;-0.94;57.20
11692;BME280;33659;42.672;23.354;2024-01-10T04:55:13;66844.97;;;-1.38;56.86
11692;BME280;33659;42.672;23.354;2024-01-10T04:57:39;66844.72;;;-1.33;56.51
11692;BME280;33659;42.672;23.354;2024-01-10T05:00:08;66889.59;;;-0.93;56.41
11692;BME280;33659;42.672;23.354;2024-01-10T05:02:35;66876.72;;;-1.05;56.76
11692;BME280;33659;42.672;23.354;2024-01-10T05:05:02;66872.84;;;-1.12;57.04
11692;BME280;33659;42.672;23.354;2024-01-10T05:07:29;66877.25;;;-1.05;57.55
11692;BME280;33659;42.672;23.354;2024-01-10T05:09:56;66885.31;;;-0.97;57.15
11692;BME280;33659;42.672;23.354;2024-01-10T05:12:23;66885.31;;;-0.97;57.48
11692;BME280;33659;42.672;23.354;2024-01-10T05:14:51;66884.22;;;-0.98;57.45
11692;BME280;33659;42.672;23.354;2024-01-10T05:17:19;66873.53;;;-1.08;57.24
11692;BME280;33659;42.672;23.354;2024-01-10T05:19:46;66866.41;;;-1.18;57.10
11692;BME280;33659;42.672;23.354;2024-01-10T05:22:14;66879.97;;;-1.02;57.04
11692;BME280;33659;42.672;23.354;2024-01-10T05:24:41;66883.56;;;-1.01;56.77
11692;BME280;33659;42.672;23.354;2024-01-10T05:27:08;66850.88;;;-1.32;57.13
11692;BME280;33659;42.672;23.354;2024-01-10T05:29:35;66869.75;;;-1.12;56.40
11692;BME280;33659;42.672;23.354;2024-01-10T05:32:03;66844.56;;;-1.36;56.92
11692;BME280;33659;42.672;23.354;2024-01-10T05:34:33;66891.06;;;-0.94;56.86
11692;BME280;33659;42.672;23.354;2024-01-10T05:36:59;66855.69;;;-1.28;56.83
11692;BME280;33659;42.672;23.354;2024-01-10T05:39:26;66882.09;;;-1.00;57.07
11692;BME280;33659;42.672;23.354;2024-01-10T05:41:53;66876.72;;;-1.05;57.26
11692;BME280;33659;42.672;23.354;2024-01-10T05:44:19;66877.81;;;-1.04;56.75
11692;BME280;33659;42.672;23.354;2024-01-10T05:46:46;66874.59;;;-1.07;56.22
11692;BME280;33659;42.672;23.354;2024-01-10T05:49:13;66874.44;;;-1.10;55.58
11692;BME280;33659;42.672;23.354;2024-01-10T05:51:41;66850.88;;;-1.32;55.93
11692;BME280;33659;42.672;23.354;2024-01-10T05:54:08;66837.47;;;-1.45;55.70
11692;BME280;33659;42.672;23.354;2024-01-10T05:56:34;66871.25;;;-1.13;55.02
11692;BME280;33659;42.672;23.354;2024-01-10T05:59:01;66859.59;;;-1.22;55.69
11692;BME280;33659;42.672;23.354;2024-01-10T06:01:28;66867.47;;;-1.17;55.04
11692;BME280;33659;42.672;23.354;2024-01-10T06:03:55;66842.44;;;-1.38;55.25
11692;BME280;33659;42.672;23.354;2024-01-10T06:06:21;66867.63;;;-1.14;54.59
11692;BME280;33659;42.672;23.354;2024-01-10T06:08:50;66832.41;;;-1.45;54.33
11692;BME280;33659;42.672;23.354;2024-01-10T06:11:17;66821.69;;;-1.55;54.06
11692;BME280;33659;42.672;23.354;2024-01-10T06:13:44;66851.00;;;-1.30;54.68
11692;BME280;33659;42.672;23.354;2024-01-10T06:16:11;66868.69;;;-1.13;54.57
11692;BME280;33659;42.672;23.354;2024-01-10T06:18:38;66876.19;;;-1.06;53.79
11692;BME280;33659;42.672;23.354;2024-01-10T06:21:05;66880.50;;;-1.02;53.50
11692;BME280;33659;42.672;23.354;2024-01-10T06:23:32;66889.59;;;-0.93;53.33
11692;BME280;33659;42.672;23.354;2024-01-10T06:26:00;66896.44;;;-0.89;53.26
11692;BME280;33659;42.672;23.354;2024-01-10T06:28:30;66899.22;;;-0.84;53.13
11692;BME280;33659;42.672;23.354;2024-01-10T06:30:57;66850.47;;;-1.30;52.78
11692;BME280;33659;42.672;23.354;2024-01-10T06:33:24;66906.75;;;-0.77;53.02
11692;BME280;33659;42.672;23.354;2024-01-10T06:35:51;66875.13;;;-1.07;52.25
11692;BME280;33659;42.672;23.354;2024-01-10T06:41:08;66892.81;;;-0.90;51.46
11692;BME280;33659;42.672;23.354;2024-01-10T06:43:35;66906.06;;;-0.80;51.76
11692;BME280;33659;42.672;23.354;2024-01-10T06:46:02;66856.78;;;-1.27;51.25
11692;BME280;33659;42.672;23.354;2024-01-10T06:48:30;66901.78;;;-0.84;50.97
11692;BME280;33659;42.672;23.354;2024-01-10T06:50:57;66895.50;;;-0.88;50.78
11692;BME280;33659;42.672;23.354;2024-01-10T06:53:24;66889.06;;;-0.94;49.83
11692;BME280;33659;42.672;23.354;2024-01-10T06:55:51;66884.75;;;-0.98;50.18
11692;BME280;33659;42.672;23.354;2024-01-10T06:58:19;66882.63;;;-1.00;49.77
11692;BME280;33659;42.672;23.354;2024-01-10T07:00:46;66882.09;;;-1.00;48.68
11692;BME280;33659;42.672;23.354;2024-01-10T07:03:12;66866.03;;;-1.16;48.93
11692;BME280;33659;42.672;23.354;2024-01-10T07:05:39;66836.00;;;-1.44;48.52
11692;BME280;33659;42.672;23.354;2024-01-10T07:08:06;66891.88;;;-0.89;49.07
11692;BME280;33659;42.672;23.354;2024-01-10T07:10:32;66903.53;;;-0.80;48.16
11692;BME280;33659;42.672;23.354;2024-01-10T07:12:59;66911.56;;;-0.72;47.96
11692;BME280;33659;42.672;23.354;2024-01-10T07:15:30;66868.56;;;-1.16;47.65
11692;BME280;33659;42.672;23.354;2024-01-10T07:17:57;66909.97;;;-0.74;46.85
11692;BME280;33659;42.672;23.354;2024-01-10T07:20:24;66937.31;;;-0.48;46.00
11692;BME280;33659;42.672;23.354;2024-01-10T07:22:51;66932.34;;;-0.55;46.12
11692;BME280;33659;42.672;23.354;2024-01-10T07:25:18;66950.59;;;-0.38;46.30
11692;BME280;33659;42.672;23.354;2024-01-10T07:27:46;66899.63;;;-0.86;45.92
11692;BME280;33659;42.672;23.354;2024-01-10T07:30:13;66959.69;;;-0.29;45.83
11692;BME280;33659;42.672;23.354;2024-01-10T07:32:41;66932.88;;;-0.55;46.41
11692;BME280;33659;42.672;23.354;2024-01-10T07:35:09;66928.03;;;-0.59;45.64
11692;BME280;33659;42.672;23.354;2024-01-10T07:37:36;66979.53;;;-0.10;45.86
11692;BME280;33659;42.672;23.354;2024-01-10T07:40:04;66945.75;;;-0.42;44.88
11692;BME280;33659;42.672;23.354;2024-01-10T07:42:32;66960.91;;;-0.25;44.86
11692;BME280;33659;42.672;23.354;2024-01-10T07:44:59;66970.56;;;-0.16;44.93
11692;BME280;33659;42.672;23.354;2024-01-10T07:47:27;66972.31;;;-0.12;45.17
11692;BME280;33659;42.672;23.354;2024-01-10T07:49:55;66972.03;;;-0.17;45.27
11692;BME280;33659;42.672;23.354;2024-01-10T07:52:22;66966.13;;;-0.23;45.55
11692;BME280;33659;42.672;23.354;2024-01-10T07:54:51;66971.50;;;-0.18;45.85
11692;BME280;33659;42.672;23.354;2024-01-10T07:57:17;66974.16;;;-0.15;45.66
11692;BME280;33659;42.672;23.354;2024-01-10T07:59:44;66924.31;;;-0.63;45.65
11692;BME280;33659;42.672;23.354;2024-01-10T08:02:11;66914.25;;;-0.70;45.84
11692;BME280;33659;42.672;23.354;2024-01-10T08:04:38;66971.09;;;-0.16;45.40
11692;BME280;33659;42.672;23.354;2024-01-10T08:07:06;66934.47;;;-0.53;45.16
11692;BME280;33659;42.672;23.354;2024-01-10T08:09:33;66987.03;;;-0.03;44.61
11692;BME280;33659;42.672;23.354;2024-01-10T08:12:00;66987.16;;;-0.01;44.68
11692;BME280;33659;42.672;23.354;2024-01-10T08:14:28;66942.53;;;-0.45;44.62
11692;BME280;33659;42.672;23.354;2024-01-10T08:16:54;66976.47;;;-0.11;44.79
11692;BME280;33659;42.672;23.354;2024-01-10T08:19:23;66990.94;;;0.03;43.87
11692;BME280;33659;42.672;23.354;2024-01-10T08:21:51;66975.78;;;-0.14;43.76
11692;BME280;33659;42.672;23.354;2024-01-10T08:24:19;67020.84;;;0.29;43.51
11692;BME280;33659;42.672;23.354;2024-01-10T08:26:46;67029.41;;;0.37;43.24
11692;BME280;33659;42.672;23.354;2024-01-10T08:29:15;67049.97;;;0.59;42.87
11692;BME280;33659;42.672;23.354;2024-01-10T08:31:42;67020.84;;;0.29;42.65
11692;BME280;33659;42.672;23.354;2024-01-10T08:34:09;67078.66;;;0.81;42.08
11692;BME280;33659;42.672;23.354;2024-01-10T08:36:36;67084.16;;;0.89;42.00
11692;BME280;33659;42.672;23.354;2024-01-10T08:39:03;67039.09;;;0.46;41.42
11692;BME280;33659;42.672;23.354;2024-01-10T08:41:32;67089.69;;;0.97;41.64
11692;BME280;33659;42.672;23.354;2024-01-10T08:43:58;67099.22;;;1.03;40.75
11692;BME280;33659;42.672;23.354;2024-01-10T08:46:25;67111.69;;;1.18;40.51
11692;BME280;33659;42.672;23.354;2024-01-10T08:48:52;67125.13;;;1.30;40.20
11692;BME280;33659;42.672;23.354;2024-01-10T08:51:19;67136.25;;;1.39;40.37
11692;BME280;33659;42.672;23.354;2024-01-10T08:53:47;67110.09;;;1.16;40.25
11692;BME280;33659;42.672;23.354;2024-01-10T08:56:18;67160.44;;;1.61;40.39
11692;BME280;33659;42.672;23.354;2024-01-10T08:58:49;67128.19;;;1.31;41.13
11692;BME280;33659;42.672;23.354;2024-01-10T09:01:15;67177.63;;;1.78;40.33
11692;BME280;33659;42.672;23.354;2024-01-10T09:03:42;67186.19;;;1.86;40.37
11692;BME280;33659;42.672;23.354;2024-01-10T09:06:10;67197.38;;;1.94;40.45
11692;BME280;33659;42.672;23.354;2024-01-10T09:08:36;67216.69;;;2.12;40.36
11692;BME280;33659;42.672;23.354;2024-01-10T09:11:04;67210.94;;;2.09;40.05
11692;BME280;33659;42.672;23.354;2024-01-10T09:13:33;67226.38;;;2.22;39.63
11692;BME280;33659;42.672;23.354;2024-01-10T09:16:01;67236.59;;;2.31;39.88
11692;BME280;33659;42.672;23.354;2024-01-10T09:18:28;67267.38;;;2.63;39.72
11692;BME280;33659;42.672;23.354;2024-01-10T09:20:56;67302.88;;;2.96;39.63
11692;BME280;33659;42.672;23.354;2024-01-10T09:23:23;67318.56;;;3.14;38.79
11692;BME280;33659;42.672;23.354;2024-01-10T09:25:50;67292.63;;;2.87;37.91
11692;BME280;33659;42.672;23.354;2024-01-10T09:28:20;67284.03;;;2.79;38.27
11692;BME280;33659;42.672;23.354;2024-01-10T09:30:46;67311.06;;;3.07;38.44
11692;BME280;33659;42.672;23.354;2024-01-10T09:33:15;67319.53;;;3.12;39.16
11692;BME280;33659;42.672;23.354;2024-01-10T09:35:42;67303.41;;;2.97;39.82
11692;BME280;33659;42.672;23.354;2024-01-10T09:38:09;67318.47;;;3.11;39.20
11692;BME280;33659;42.672;23.354;2024-01-10T09:40:36;67290.63;;;2.87;40.03
11692;BME280;33659;42.672;23.354;2024-01-10T09:43:04;67376.53;;;3.66;39.40
11692;BME280;33659;42.672;23.354;2024-01-10T09:45:35;67409.25;;;3.95;38.84
11692;BME280;33659;42.672;23.354;2024-01-10T09:48:03;67426.06;;;4.13;38.82
11692;BME280;33659;42.672;23.354;2024-01-10T09:50:32;67461.47;;;4.44;38.76
11692;BME280;33659;42.672;23.354;2024-01-10T09:53:05;67446.94;;;4.30;38.72
11692;BME280;33659;42.672;23.354;2024-01-10T09:55:34;67465.91;;;4.51;37.86
11692;BME280;33659;42.672;23.354;2024-01-10T09:58:03;67420.16;;;4.07;38.08
11692;BME280;33659;42.672;23.354;2024-01-10T10:00:31;67502.53;;;4.85;37.84
11692;BME280;33659;42.672;23.354;2024-01-10T10:03:04;67498.63;;;4.79;38.04
11692;BME280;33659;42.672;23.354;2024-01-10T10:05:35;67523.41;;;5.03;37.99
11692;BME280;33659;42.672;23.354;2024-01-10T10:08:06;67516.94;;;4.97;37.32
11692;BME280;33659;42.672;23.354;2024-01-10T10:10:33;67515.84;;;4.96;36.67
11692;BME280;33659;42.672;23.354;2024-01-10T10:12:59;67533.75;;;5.15;37.16
11692;BME280;33659;42.672;23.354;2024-01-10T10:15:28;67490.41;;;4.69;37.31
11692;BME280;33659;42.672;23.354;2024-01-10T10:17:55;67547.22;;;5.28;36.96
11692;BME280;33659;42.672;23.354;2024-01-10T10:20:23;67575.28;;;5.54;36.95
11692;BME280;33659;42.672;23.354;2024-01-10T10:22:59;67602.63;;;5.78;36.43
11692;BME280;33659;42.672;23.354;2024-01-10T10:25:30;67575.28;;;5.54;37.47
11692;BME280;33659;42.672;23.354;2024-01-10T10:27:59;67575.81;;;5.55;38.12
11692;BME280;33659;42.672;23.354;2024-01-10T10:30:27;67593.03;;;5.71;38.47
11692;BME280;33659;42.672;23.354;2024-01-10T10:32:55;67630.81;;;6.07;38.31
11692;BME280;33659;42.672;23.354;2024-01-10T10:35:23;67610.69;;;5.85;37.97
11692;BME280;33659;42.672;23.354;2024-01-10T10:37:52;67636.06;;;6.09;37.29
11692;BME280;33659;42.672;23.354;2024-01-10T10:40:21;67616.78;;;5.93;37.25
11692;BME280;33659;42.672;23.354;2024-01-10T10:42:54;67685.13;;;6.56;36.58
11692;BME280;33659;42.672;23.354;2024-01-10T10:45:22;67716.97;;;6.86;36.10
11692;BME280;33659;42.672;23.354;2024-01-10T10:47:56;67687.31;;;6.58;35.96
11692;BME280;33659;42.672;23.354;2024-01-10T10:50:28;67723.97;;;6.92;35.63
11692;BME280;33659;42.672;23.354;2024-01-10T10:52:55;67755.28;;;7.22;35.31
11692;BME280;33659;42.672;23.354;2024-01-10T10:55:26;67720.19;;;6.89;34.89
11692;BME280;33659;42.672;23.354;2024-01-10T10:57:54;67729.25;;;6.95;34.88
11692;BME280;33659;42.672;23.354;2024-01-10T11:00:22;67709.97;;;6.79;35.21
11692;BME280;33659;42.672;23.354;2024-01-10T11:02:53;67675.97;;;6.47;35.04
11692;BME280;33659;42.672;23.354;2024-01-10T11:05:20;67742.88;;;7.10;34.88
11692;BME280;33659;42.672;23.354;2024-01-10T11:07:47;67764.34;;;7.28;34.58
11692;BME280;33659;42.672;23.354;2024-01-10T11:10:17;67789.16;;;7.51;34.02
11692;BME280;33659;42.672;23.354;2024-01-10T11:13:00;67793.59;;;7.58;33.87
11692;BME280;33659;42.672;23.354;2024-01-10T11:15:48;67742.19;;;7.07;34.11
11692;BME280;33659;42.672;23.354;2024-01-10T11:18:33;67782.69;;;7.45;34.47
11692;BME280;33659;42.672;23.354;2024-01-10T11:21:18;67817.91;;;7.81;33.64
11692;BME280;33659;42.672;23.354;2024-01-10T11:23:51;67844.22;;;8.03;33.40
11692;BME280;33659;42.672;23.354;2024-01-10T11:26:20;67875.03;;;8.32;33.40
11692;BME280;33659;42.672;23.354;2024-01-10T11:28:48;67903.25;;;8.61;32.76
11692;BME280;33659;42.672;23.354;2024-01-10T11:31:15;67812.06;;;7.78;33.15
11692;BME280;33659;42.672;23.354;2024-01-10T11:33:42;67811.28;;;7.72;33.42
11692;BME280;33659;42.672;23.354;2024-01-10T11:36:13;67884.91;;;8.44;33.16
11692;BME280;33659;42.672;23.354;2024-01-10T11:38:58;67906.91;;;8.62;32.30
11692;BME280;33659;42.672;23.354;2024-01-10T11:41:28;67998.78;;;9.49;31.86
11692;BME280;33659;42.672;23.354;2024-01-10T11:47:07;68067.47;;;10.14;30.76
11692;BME280;33659;42.672;23.354;2024-01-10T11:49:35;68065.31;;;10.12;30.57
11692;BME280;33659;42.672;23.354;2024-01-10T11:52:02;68167.63;;;11.08;29.59
11692;BME280;33659;42.672;23.354;2024-01-10T11:54:36;68273.75;;;12.08;28.34
11692;BME280;33659;42.672;23.354;2024-01-10T11:57:02;68342.56;;;12.72;27.38
11692;BME280;33659;42.672;23.354;2024-01-10T11:59:30;68261.84;;;11.97;27.93
11692;BME280;33659;42.672;23.354;2024-01-10T12:01:58;68239.63;;;11.76;27.85
11692;BME280;33659;42.672;23.354;2024-01-10T12:04:26;68338.34;;;12.71;27.33
11692;BME280;33659;42.672;23.354;2024-01-10T12:06:55;68482.38;;;14.01;25.82
11692;BME280;33659;42.672;23.354;2024-01-10T12:09:23;68568.16;;;14.82;24.53
11692;BME280;33659;42.672;23.354;2024-01-10T12:11:50;68582.28;;;14.95;24.95
11692;BME280;33659;42.672;23.354;2024-01-10T12:14:17;68685.47;;;15.92;23.80
11692;BME280;33659;42.672;23.354;2024-01-10T12:16:46;68869.78;;;17.65;22.33
11692;BME280;33659;42.672;23.354;2024-01-10T12:19:13;69012.91;;;18.99;21.18
11692;BME280;33659;42.672;23.354;2024-01-10T12:21:44;69084.63;;;19.61;20.16
11692;BME280;33659;42.672;23.354;2024-01-10T12:24:13;69184.34;;;20.54;19.81
11692;BME280;33659;42.672;23.354;2024-01-10T12:26:43;69159.06;;;20.99;19.35
11692;BME280;33659;42.672;23.354;2024-01-10T12:29:11;69120.97;;;20.64;19.02
11692;BME280;33659;42.672;23.354;2024-01-10T12:31:39;69238.31;;;21.04;18.99
11692;BME280;33659;42.672;23.354;2024-01-10T12:34:07;69206.03;;;21.46;18.88
11692;BME280;33659;42.672;23.354;2024-01-10T12:36:34;69337.06;;;21.97;18.29
11692;BME280;33659;42.672;23.354;2024-01-10T12:39:03;69314.25;;;21.78;18.06
11692;BME280;33659;42.672;23.354;2024-01-10T12:41:32;69353.44;;;22.12;18.39
11692;BME280;33659;42.672;23.354;2024-01-10T12:44:00;69363.91;;;22.24;17.93
11692;BME280;33659;42.672;23.354;2024-01-10T12:46:28;69361.63;;;22.20;17.80
11692;BME280;33659;42.672;23.354;2024-01-10T12:48:59;69337.16;;;21.99;17.97
11692;BME280;33659;42.672;23.354;2024-01-10T12:51:29;69321.34;;;21.84;18.16
11692;BME280;33659;42.672;23.354;2024-01-10T12:53:57;69231.78;;;20.98;18.53
11692;BME280;33659;42.672;23.354;2024-01-10T12:56:26;69244.88;;;21.10;18.79
11692;BME280;33659;42.672;23.354;2024-01-10T12:58:53;69195.88;;;20.67;18.55
11692;BME280;33659;42.672;23.354;2024-01-10T13:01:23;69204.63;;;20.75;19.37